Time;durP1;ratioP1;P1;durP2;ratioP2;P2;SDS_P1;SDS_P2;PMS_P1;PMS_P2;Temp;Humidity;BMP_temperature;BMP_pressure;BME280_temperature;BME280_humidity;BME280_pressure;Samples;Min_cycle;Max_cycle;Signal;HPM_P1;HPM_P2
2020/12/14 00:00:56;;;;;;;4.87;2.57;;;8.20;99.90;;;;;;4963081;28;20508;-83
2020/12/14 00:04:00;;;;;;;2.87;2.20;;;8.10;99.90;;;;;;4947158;28;20466;-84
2020/12/14 00:07:30;;;;;;;7.13;2.87;;;8.20;99.90;;;;;;4957079;28;20451;-83
2020/12/14 00:10:53;;;;;;;6.80;2.90;;;8.10;99.90;;;;;;4904545;28;20775;-83
2020/12/14 00:17:46;;;;;;;3.10;2.03;;;8.10;99.90;;;;;;4923424;28;20859;-83
2020/12/14 00:23:15;;;;;;;5.13;2.87;;;8.20;99.90;;;;;;4952211;28;20503;-84
2020/12/14 00:26:24;;;;;;;6.10;2.17;;;8.20;99.90;;;;;;4971398;28;20544;-83
2020/12/14 00:29:39;;;;;;;4.23;2.47;;;8.10;99.90;;;;;;4956271;28;20987;-84
2020/12/14 00:32:58;;;;;;;;;;;;;;;;;;;;;
2020/12/14 00:36:02;;;;;;;6.33;2.30;;;8.20;99.90;;;;;;4891535;29;20546;-83
2020/12/14 00:39:23;;;;;;;2.43;1.90;;;8.10;99.90;;;;;;4888275;29;20544;-83
2020/12/14 00:45:24;;;;;;;1.53;1.33;;;8.10;99.90;;;;;;4867019;29;20861;-84
2020/12/14 00:47:58;;;;;;;8.33;2.70;;;8.20;99.90;;;;;;4890286;29;20455;-81
2020/12/14 00:50:34;;;;;;;2.27;1.87;;;8.30;99.90;;;;;;4909080;29;20498;-82
2020/12/14 00:53:24;;;;;;;3.27;2.17;;;8.30;99.90;;;;;;4917922;28;20564;-83
2020/12/14 00:56:08;;;;;;;2.90;1.93;;;8.10;99.90;;;;;;4956510;28;20523;-83
2020/12/14 00:59:03;;;;;;;4.30;2.20;;;8.20;99.90;;;;;;4956555;28;21111;-83
2020/12/14 01:02:00;;;;;;;3.50;2.03;;;8.20;99.90;;;;;;4941499;28;20531;-83
2020/12/14 01:04:59;;;;;;;2.47;2.23;;;8.30;99.90;;;;;;4971267;28;20455;-83
2020/12/14 01:08:14;;;;;;;3.87;2.40;;;8.30;99.90;;;;;;4930531;28;20459;-83
2020/12/14 01:15:47;;;;;;;2.70;2.10;;;8.30;99.90;;;;;;4905873;28;20427;-83
2020/12/14 01:18:37;;;;;;;2.27;2.07;;;8.30;99.90;;;;;;4947910;28;20428;-84
2020/12/14 01:21:38;;;;;;;3.80;2.30;;;8.40;99.90;;;;;;4951189;28;20590;-84
2020/12/14 01:24:40;;;;;;;3.03;2.17;;;8.50;99.90;;;;;;4966001;28;20444;-84
2020/12/14 01:27:38;;;;;;;4.17;2.43;;;8.30;99.90;;;;;;4971183;28;20538;-85
2020/12/14 01:30:52;;;;;;;4.93;1.83;;;8.10;99.90;;;;;;4960628;28;20467;-83
2020/12/14 01:34:22;;;;;;;2.60;2.17;;;8.10;99.90;;;;;;4954116;28;20432;-84
2020/12/14 01:37:04;;;;;;;4.30;2.00;;;8.40;99.90;;;;;;4942582;28;20630;-84
2020/12/14 01:40:40;;;;;;;3.80;2.10;;;8.30;99.90;;;;;;4983462;23;20571;-83
2020/12/14 01:46:45;;;;;;;1.67;1.57;;;8.20;99.90;;;;;;4988881;28;20501;-84
2020/12/14 01:49:29;;;;;;;4.83;1.80;;;8.50;99.90;;;;;;4981031;28;20500;-84
2020/12/14 01:52:20;;;;;;;2.53;2.00;;;8.40;99.90;;;;;;4971372;28;20475;-82
2020/12/14 01:55:22;;;;;;;2.40;1.50;;;8.00;99.90;;;;;;4963042;28;20488;-84
2020/12/14 01:58:16;;;;;;;3.60;1.53;;;8.30;99.90;;;;;;4959297;28;20458;-82
2020/12/14 02:01:02;;;;;;;3.73;1.90;;;8.40;99.90;;;;;;4957364;28;20519;-83
2020/12/14 02:04:10;;;;;;;2.20;2.00;;;8.10;99.90;;;;;;4972230;28;20452;-84
2020/12/14 02:07:13;;;;;;;6.97;2.00;;;8.20;99.90;;;;;;4984542;28;20452;-83
2020/12/14 02:10:18;;;;;;;;;;;;;;;;;;;;;
2020/12/14 02:13:07;;;;;;;4.30;2.07;;;8.40;99.90;;;;;;4948254;28;20436;-84
2020/12/14 02:15:42;;;;;;;3.93;1.87;;;8.10;99.90;;;;;;4972210;28;20466;-84
2020/12/14 02:18:35;;;;;;;5.80;1.97;;;8.10;99.90;;;;;;4965518;28;21204;-84
2020/12/14 02:21:23;;;;;;;1.57;1.47;;;8.20;99.90;;;;;;4983057;28;20481;-82
2020/12/14 02:23:59;;;;;;;4.30;1.93;;;8.20;99.90;;;;;;4969143;28;20617;-84
2020/12/14 02:26:48;;;;;;;3.47;1.77;;;8.50;99.90;;;;;;4988176;28;20463;-82
2020/12/14 02:29:27;;;;;;;3.70;2.60;;;8.50;99.90;;;;;;4968287;28;20494;-84
2020/12/14 02:31:59;;;;;;;3.40;1.70;;;8.10;99.90;;;;;;4985934;28;20466;-82
2020/12/14 02:34:56;;;;;;;4.20;2.00;;;8.20;99.90;;;;;;4898720;29;20616;-81
2020/12/14 02:37:48;;;;;;;6.23;2.17;;;8.40;99.90;;;;;;4886982;29;20454;-82
2020/12/14 02:40:32;;;;;;;;;;;;;;;;;;;;;
2020/12/14 02:43:14;;;;;;;1.30;1.20;;;8.30;99.90;;;;;;4898129;29;20472;-82
2020/12/14 02:46:22;;;;;;;3.20;2.07;;;8.30;99.90;;;;;;4895669;29;20474;-83
2020/12/14 02:49:19;;;;;;;6.03;2.20;;;8.20;99.90;;;;;;4853369;29;20440;-83
2020/12/14 02:52:28;;;;;;;2.30;1.80;;;8.30;99.90;;;;;;4881701;29;20519;-81
2020/12/14 02:55:07;;;;;;;;;;;;;;;;;;;;;
2020/12/14 02:57:46;;;;;;;3.13;2.37;;;8.10;99.90;;;;;;4894932;29;20448;-83
2020/12/14 03:00:54;;;;;;;;;;;;;;;;;;;;;
2020/12/14 03:03:52;;;;;;;2.17;1.90;;;8.10;99.90;;;;;;4953845;28;20416;-81
2020/12/14 03:06:34;;;;;;;1.30;1.20;;;7.90;99.90;;;;;;4957029;28;21277;-81
2020/12/14 03:09:28;;;;;;;4.37;2.00;;;8.10;99.90;;;;;;4966442;28;20523;-81
2020/12/14 03:12:03;;;;;;;2.07;1.87;;;8.10;99.90;;;;;;4977213;28;20440;-82
2020/12/14 03:14:53;;;;;;;2.30;2.10;;;8.00;99.90;;;;;;4968502;28;20468;-84
2020/12/14 03:17:31;;;;;;;6.00;2.57;;;8.00;99.90;;;;;;4986358;28;20471;-83
2020/12/14 03:20:10;;;;;;;2.77;2.13;;;7.90;99.90;;;;;;4986740;28;20499;-82
2020/12/14 03:22:48;;;;;;;6.37;1.77;;;8.20;99.90;;;;;;4972536;28;20456;-83
2020/12/14 03:25:19;;;;;;;3.23;2.30;;;8.00;99.90;;;;;;4971034;28;20516;-83
2020/12/14 03:27:56;;;;;;;2.80;1.90;;;8.00;99.90;;;;;;4987337;28;20969;-82
2020/12/14 03:30:27;;;;;;;2.37;1.97;;;8.00;99.90;;;;;;4971021;28;20471;-82
2020/12/14 03:33:04;;;;;;;4.00;2.20;;;8.00;99.90;;;;;;4972289;28;21250;-81
2020/12/14 03:35:39;;;;;;;2.40;1.90;;;7.90;99.90;;;;;;4969816;28;21183;-83
2020/12/14 03:38:43;;;;;;;2.40;1.80;;;8.10;99.90;;;;;;4937078;28;20507;-81
2020/12/14 03:41:49;;;;;;;3.20;1.80;;;8.20;99.90;;;;;;4881785;29;20913;-81
2020/12/14 03:44:46;;;;;;;4.40;3.00;;;8.30;99.90;;;;;;4854569;29;20489;-83
2020/12/14 03:47:34;;;;;;;3.27;2.53;;;8.10;99.90;;;;;;4858620;29;20599;-83
2020/12/14 03:50:24;;;;;;;4.80;1.90;;;8.20;99.90;;;;;;4879900;29;20559;-84
2020/12/14 03:53:09;;;;;;;2.50;2.30;;;8.10;99.90;;;;;;4886283;29;20482;-83
2020/12/14 03:56:19;;;;;;;3.10;1.93;;;8.20;99.90;;;;;;4887685;29;20925;-82
2020/12/14 04:02:52;;;;;;;2.33;1.60;;;8.20;99.90;;;;;;4856181;29;21023;-82
2020/12/14 04:06:02;;;;;;;2.67;1.80;;;8.10;99.90;;;;;;4963452;28;20427;-82
2020/12/14 04:09:38;;;;;;;;;;;;;;;;;;;;;
2020/12/14 04:12:32;;;;;;;4.43;1.70;;;8.40;99.90;;;;;;4883253;29;20436;-82
2020/12/14 04:15:25;;;;;;;2.83;2.20;;;8.30;99.90;;;;;;4875995;29;20459;-82
2020/12/14 04:21:44;;;;;;;3.27;2.13;;;8.10;99.90;;;;;;4894502;29;20518;-80
2020/12/14 04:31:37;;;;;;;1.67;1.57;;;8.30;99.90;;;;;;4900913;29;20443;-83
2020/12/14 04:34:56;;;;;;;4.77;1.80;;;8.30;99.90;;;;;;4899437;29;20462;-83
2020/12/14 04:37:40;;;;;;;1.83;1.53;;;8.30;99.90;;;;;;4900425;29;20488;-82
2020/12/14 04:40:29;;;;;;;1.57;1.30;;;8.20;99.90;;;;;;4897391;29;21570;-80
2020/12/14 04:43:29;;;;;;;;;;;;;;;;;;;;;
2020/12/14 04:47:24;;;;;;;;;;;;;;;;;;;;;
2020/12/14 04:50:34;;;;;;;3.03;1.50;;;8.20;99.90;;;;;;4968821;28;20518;-82
2020/12/14 04:54:03;;;;;;;;;;;;;;;;;;;;;
2020/12/14 04:57:44;;;;;;;3.63;1.87;;;8.20;99.90;;;;;;4861771;29;20555;-83
2020/12/14 05:00:24;;;;;;;2.67;1.83;;;8.20;99.90;;;;;;4912160;29;20486;-84
2020/12/14 05:03:22;;;;;;;4.43;2.37;;;8.10;99.90;;;;;;4906380;29;20470;-83
2020/12/14 05:21:21;;;;;;;3.47;1.73;;;8.30;99.90;;;;;;4831380;29;20489;-82
2020/12/14 05:24:54;;;;;;;3.50;2.10;;;8.40;99.90;;;;;;4800898;29;20551;-80
2020/12/14 05:28:19;;;;;;;1.57;1.47;;;8.40;99.90;;;;;;4749903;30;20455;-81
2020/12/14 05:35:09;;;;;;;3.80;1.93;;;8.40;99.90;;;;;;4747125;30;20538;-82
2020/12/14 05:42:28;;;;;;;4.20;2.10;;;8.50;99.90;;;;;;4776318;29;20513;-82
2020/12/14 05:45:38;;;;;;;4.97;2.37;;;8.50;99.90;;;;;;4777673;29;20455;-82
2020/12/14 05:48:53;;;;;;;3.43;2.60;;;8.50;99.90;;;;;;4830236;29;20450;-82
2020/12/14 05:51:46;;;;;;;6.27;1.83;;;8.30;99.90;;;;;;4827227;29;20479;-83
2020/12/14 05:54:58;;;;;;;2.43;1.70;;;8.40;99.90;;;;;;4801984;29;20731;-82
2020/12/14 05:58:11;;;;;;;4.60;1.90;;;8.30;99.90;;;;;;4826700;29;20459;-83
2020/12/14 06:01:17;;;;;;;2.67;1.70;;;8.50;99.90;;;;;;4882336;29;20586;-82
2020/12/14 06:04:17;;;;;;;2.80;1.70;;;8.30;99.90;;;;;;4881224;29;20528;-82
2020/12/14 06:10:57;;;;;;;2.47;1.90;;;8.70;99.90;;;;;;4948147;28;20848;-82
2020/12/14 06:17:21;;;;;;;2.00;1.83;;;8.80;99.90;;;;;;4979835;28;20483;-81
2020/12/14 06:20:15;;;;;;;1.90;1.70;;;8.80;99.90;;;;;;4959158;28;20488;-82
2020/12/14 06:23:14;;;;;;;3.13;1.50;;;8.70;99.90;;;;;;4978597;28;20436;-82
2020/12/14 06:26:27;;;;;;;4.80;2.60;;;8.60;99.90;;;;;;4955427;28;20943;-83
2020/12/14 06:30:31;;;;;;;2.67;1.80;;;8.60;99.90;;;;;;4966007;28;20492;-82
2020/12/14 06:33:31;;;;;;;3.93;2.17;;;8.80;99.90;;;;;;4931435;28;20450;-82
2020/12/14 06:36:50;;;;;;;3.90;2.30;;;8.80;99.90;;;;;;4918795;29;20434;-81
2020/12/14 06:40:02;;;;;;;5.17;2.03;;;8.60;99.90;;;;;;4926152;29;20483;-84
2020/12/14 06:43:32;;;;;;;3.70;2.13;;;8.60;99.90;;;;;;4923238;29;20556;-82
2020/12/14 06:46:52;;;;;;;3.07;1.83;;;8.40;99.90;;;;;;4920750;29;20734;-85
2020/12/14 06:50:59;;;;;;;;;;;;;;;;;;;;;
2020/12/14 06:58:01;;;;;;;1.90;1.70;;;8.40;99.90;;;;;;4941133;29;20457;-83
2020/12/14 07:06:26;;;;;;;2.17;1.63;;;8.60;99.90;;;;;;4126088;26;20553;-83
2020/12/14 07:09:44;;;;;;;5.30;1.10;;;8.70;99.90;;;;;;4984002;28;20478;-82
2020/12/14 07:16:10;;;;;;;2.27;1.47;;;8.70;99.90;;;;;;5000535;28;20463;-83
2020/12/14 07:22:11;;;;;;;3.30;1.70;;;8.80;99.90;;;;;;5064903;23;20492;-79
2020/12/14 07:25:39;;;;;;;;;;;;;;;;;;;;;
2020/12/14 07:29:23;;;;;;;2.57;1.67;;;8.90;99.90;;;;;;4930896;28;20429;-82
2020/12/14 07:32:27;;;;;;;2.03;1.40;;;8.70;99.90;;;;;;4922239;29;20491;-83
2020/12/14 07:36:11;;;;;;;3.90;1.57;;;8.80;99.90;;;;;;4948681;29;20437;-83
2020/12/14 07:42:48;;;;;;;;;;;;;;;;;;;;;
2020/12/14 07:45:34;;;;;;;1.50;1.00;;;8.90;99.90;;;;;;4997288;28;20435;-81
2020/12/14 07:48:34;;;;;;;;;;;;;;;;;;;;;
2020/12/14 07:54:47;;;;;;;2.37;1.97;;;8.90;99.90;;;;;;5020330;23;20502;-83
2020/12/14 07:57:54;;;;;;;1.60;1.43;;;9.10;99.90;;;;;;4942385;29;20452;-84
2020/12/14 08:01:18;;;;;;;1.70;1.60;;;9.10;99.90;;;;;;4928234;29;20485;-83
2020/12/14 08:04:03;;;;;;;2.47;2.27;;;9.10;99.90;;;;;;4882624;29;20456;-81
2020/12/14 08:07:07;;;;;;;1.70;1.43;;;8.90;99.90;;;;;;4878217;29;20495;-80
2020/12/14 08:10:37;;;;;;;2.13;1.87;;;8.90;99.90;;;;;;4861161;29;20489;-83
2020/12/14 08:13:38;;;;;;;1.60;1.50;;;8.80;99.90;;;;;;4972689;28;20436;-82
2020/12/14 08:16:49;;;;;;;1.83;1.17;;;8.80;99.90;;;;;;4960499;28;20549;-80
2020/12/14 08:19:38;;;;;;;1.80;1.70;;;9.10;99.90;;;;;;4963489;28;20492;-84
2020/12/14 08:22:35;;;;;;;3.30;2.27;;;8.90;99.90;;;;;;4974674;28;20467;-82
2020/12/14 08:25:55;;;;;;;;;;;;;;;;;;;;;
2020/12/14 08:29:07;;;;;;;2.23;2.00;;;8.70;99.90;;;;;;4997416;28;20451;-83
2020/12/14 08:32:20;;;;;;;1.93;1.70;;;9.00;99.90;;;;;;4985110;28;20482;-81
2020/12/14 08:35:37;;;;;;;2.10;1.87;;;9.00;99.90;;;;;;5001301;28;20441;-82
2020/12/14 08:41:43;;;;;;;3.37;1.93;;;9.00;99.90;;;;;;5011691;28;20505;-82
2020/12/14 08:45:22;;;;;;;4.83;2.20;;;9.30;99.90;;;;;;5013730;28;20450;-83
2020/12/14 08:48:20;;;;;;;2.57;1.63;;;9.20;99.90;;;;;;4984681;28;20481;-83
2020/12/14 08:59:27;;;;;;;3.67;1.60;;;9.30;99.90;;;;;;4885855;29;20429;-82
2020/12/14 09:02:10;;;;;;;1.70;1.33;;;9.20;99.90;;;;;;4882343;29;20451;-81
2020/12/14 09:06:06;;;;;;;4.50;2.10;;;9.00;99.90;;;;;;4889719;29;20496;-81
2020/12/14 09:09:40;;;;;;;;;;;;;;;;;;;;;
2020/12/14 09:16:38;;;;;;;;;;;;;;;;;;;;;
2020/12/14 09:19:57;;;;;;;3.40;2.10;;;9.30;99.90;;;;;;4848270;29;20474;-82
2020/12/14 09:22:55;;;;;;;1.93;1.73;;;9.20;99.90;;;;;;4848400;29;20456;-80
2020/12/14 09:26:40;;;;;;;5.50;2.10;;;9.30;99.90;;;;;;4871250;29;20542;-80
2020/12/14 09:29:53;;;;;;;4.57;1.80;;;9.00;99.90;;;;;;4880945;29;20477;-81
2020/12/14 09:33:02;;;;;;;4.00;2.30;;;9.40;99.90;;;;;;4874369;29;20458;-80
2020/12/14 09:36:07;;;;;;;3.00;2.20;;;9.40;99.90;;;;;;4879034;29;20489;-81
2020/12/14 09:40:02;;;;;;;1.80;1.70;;;9.30;99.90;;;;;;4855482;29;20447;-81
2020/12/14 09:43:46;;;;;;;2.50;1.80;;;9.10;99.90;;;;;;4826684;29;20505;-81
2020/12/14 09:47:00;;;;;;;2.70;2.40;;;9.30;99.90;;;;;;4838939;29;20488;-82
2020/12/14 09:51:04;;;;;;;2.33;2.13;;;9.50;99.90;;;;;;4864734;29;20457;-81
2020/12/14 09:54:13;;;;;;;2.70;2.27;;;9.40;99.90;;;;;;4875819;29;20450;-81
2020/12/14 09:57:37;;;;;;;;;;;;;;;;;;;;;
2020/12/14 10:01:09;;;;;;;;;;;;;;;;;;;;;
2020/12/14 10:04:50;;;;;;;3.10;2.20;;;9.50;99.90;;;;;;4864957;29;20461;-81
2020/12/14 10:23:12;;;;;;;2.10;1.90;;;10.40;99.90;;;;;;4854672;29;20444;-81
2020/12/14 10:29:40;;;;;;;;;;;;;;;;;;;;;
2020/12/14 10:32:29;;;;;;;2.50;1.90;;;10.60;99.90;;;;;;4921359;28;20455;-82
2020/12/14 10:36:24;;;;;;;2.50;1.80;;;10.70;99.90;;;;;;4985403;28;20439;-81
2020/12/14 11:14:09;;;;;;;5.70;2.20;;;11.10;99.90;;;;;;4758007;30;20525;-83
2020/12/14 11:24:48;;;;;;;3.63;1.77;;;11.20;99.90;;;;;;4796643;29;20472;-82
2020/12/14 11:44:53;;;;;;;6.80;4.23;;;11.70;99.90;;;;;;4975308;28;20476;-83
2020/12/14 11:50:49;;;;;;;2.80;2.60;;;11.50;99.90;;;;;;5051599;23;20558;-81
2020/12/14 11:53:59;;;;;;;4.27;1.70;;;11.10;99.90;;;;;;5017863;28;20451;-83
2020/12/14 12:01:18;;;;;;;;;;;;;;;;;;;;;
2020/12/14 12:05:04;;;;;;;;;;;;;;;;;;;;;
2020/12/14 12:12:15;;;;;;;2.07;1.50;;;11.60;99.90;;;;;;4837211;29;20481;-82
2020/12/14 12:15:36;;;;;;;2.67;1.60;;;11.70;99.90;;;;;;4786137;29;20592;-84
2020/12/14 12:20:16;;;;;;;5.23;2.93;;;11.70;99.90;;;;;;4759185;30;20442;-81
2020/12/14 12:30:57;;;;;;;1.87;1.53;;;11.80;99.90;;;;;;4741191;30;20483;-83
2020/12/14 12:34:28;;;;;;;2.17;1.70;;;11.60;99.90;;;;;;4733834;30;20440;-84
2020/12/14 12:37:50;;;;;;;2.10;1.60;;;12.00;99.90;;;;;;4743038;29;20436;-82
2020/12/14 12:41:01;;;;;;;4.03;2.07;;;11.80;99.90;;;;;;4743013;30;20489;-83
2020/12/14 12:52:05;;;;;;;;;;;;;;;;;;;;;
2020/12/14 12:55:39;;;;;;;3.27;1.50;;;11.60;99.90;;;;;;4861040;29;20478;-81
2020/12/14 12:59:32;;;;;;;;;;;;;;;;;;;;;
2020/12/14 13:11:11;;;;;;;5.07;1.77;;;12.20;99.90;;;;;;4718793;30;20499;-84
2020/12/14 13:18:18;;;;;;;1.77;1.47;;;11.70;99.90;;;;;;4714444;30;20545;-84
2020/12/14 13:21:09;;;;;;;2.87;2.00;;;11.80;99.90;;;;;;4992077;23;20491;-83
2020/12/14 13:27:26;;;;;;;4.70;2.37;;;11.90;99.90;;;;;;4922467;28;20523;-83
2020/12/14 13:31:11;;;;;;;2.53;2.13;;;12.10;99.90;;;;;;4944029;29;20486;-84
2020/12/14 13:35:22;;;;;;;;;;;;;;;;;;;;;
2020/12/14 13:42:07;;;;;;;2.57;1.67;;;11.80;99.90;;;;;;4860523;29;20556;-84
2020/12/14 14:11:57;;;;;;;;;;;;;;;;;;;;;
2020/12/14 14:22:26;;;;;;;1.90;1.70;;;11.80;99.90;;;;;;4885382;29;20549;-83
2020/12/14 14:29:42;;;;;;;1.90;1.80;;;11.70;99.90;;;;;;4820956;29;20457;-85
2020/12/14 14:33:06;;;;;;;2.57;1.87;;;11.80;99.90;;;;;;4827729;29;20489;-84
2020/12/14 14:36:31;;;;;;;2.80;1.83;;;12.00;99.70;;;;;;4866832;29;20465;-82
2020/12/14 14:39:41;;;;;;;;;;;;;;;;;;;;;
2020/12/14 14:42:57;;;;;;;3.50;1.90;;;11.50;99.90;;;;;;4845218;29;20439;-82
2020/12/14 21:52:58;;;;;;;;;;;;;;;;;;;;;
2020/12/14 21:56:03;;;;;;;5.07;2.60;;;11.20;96.70;;;;;;4968802;28;20451;-88
2020/12/14 22:25:27;;;;;;;2.37;2.20;;;10.60;97.80;;;;;;4935802;29;21029;-85
2020/12/14 22:29:08;;;;;;;3.03;2.53;;;10.70;98.00;;;;;;4887772;29;20431;-87
2020/12/14 22:32:30;;;;;;;3.13;2.67;;;11.00;97.00;;;;;;4909082;29;20459;-85
2020/12/14 22:43:38;;;;;;;2.50;2.30;;;10.70;96.80;;;;;;4892039;29;20455;-85
2020/12/14 22:47:13;;;;;;;;;;;;;;;;;;;;;
2020/12/14 23:40:57;;;;;;;2.63;2.30;;;10.80;96.70;;;;;;4647405;23;10002110;-86
2020/12/14 23:44:24;;;;;;;;;;;;;;;;;;;;;
2020/12/14 23:48:01;;;;;;;2.77;2.23;;;10.50;97.80;;;;;;5011879;28;20458;-85
2020/12/14 23:56:17;;;;;;;4.33;2.63;;;10.50;98.90;;;;;;4873005;29;21305;-88
